createdAt,value
2018-05-18T00:00:52.632Z,22.79
2018-05-18T00:03:19.269Z,22.79
2018-05-18T00:05:45.914Z,22.79
2018-05-18T00:08:12.596Z,22.76
2018-05-18T00:10:39.237Z,22.77
2018-05-18T00:13:05.900Z,22.75
2018-05-18T00:15:32.601Z,22.76
2018-05-18T00:17:59.201Z,22.75
2018-05-18T00:20:28.796Z,22.76
2018-05-18T00:22:58.629Z,22.73
2018-05-18T00:25:25.272Z,22.72
2018-05-18T00:27:56.349Z,22.72
2018-05-18T00:30:21.450Z,22.70
2018-05-18T00:32:48.135Z,22.71
2018-05-18T00:35:14.813Z,22.72
2018-05-18T00:37:41.546Z,22.70
2018-05-18T00:40:11.350Z,22.69
2018-05-18T00:42:40.919Z,22.67
2018-05-18T00:45:07.563Z,22.65
2018-05-18T00:47:34.209Z,22.66
2018-05-18T00:50:00.843Z,22.66
2018-05-18T00:52:28.971Z,22.67
2018-05-18T00:54:54.141Z,22.67
2018-05-18T00:57:22.854Z,22.64
2018-05-18T00:59:47.460Z,22.66
2018-05-18T01:02:14.162Z,22.63
2018-05-18T01:04:40.800Z,22.64
2018-05-18T01:07:07.432Z,22.59
2018-05-18T01:09:34.078Z,22.59
2018-05-18T01:12:00.712Z,22.57
2018-05-18T01:14:30.308Z,22.54
2018-05-18T01:16:59.963Z,22.56
2018-05-18T01:19:28.008Z,22.57
2018-05-18T01:21:56.098Z,22.54
2018-05-18T01:24:22.783Z,22.55
2018-05-18T01:26:49.418Z,22.55
2018-05-18T01:29:16.138Z,22.55
2018-05-18T01:31:50.840Z,22.52
2018-05-18T01:34:17.438Z,22.54
2018-05-18T01:36:45.448Z,22.51
2018-05-18T01:39:10.761Z,22.50
2018-05-18T01:41:37.411Z,22.50
2018-05-18T01:44:04.044Z,22.50
2018-05-18T01:46:30.696Z,22.49
2018-05-18T01:48:58.762Z,22.48
2018-05-18T01:51:24.005Z,22.48
2018-05-18T01:53:51.893Z,22.49
2018-05-18T01:56:17.274Z,22.49
2018-05-18T01:58:46.894Z,22.47
2018-05-18T02:01:13.526Z,22.45
2018-05-18T02:03:41.789Z,22.47
2018-05-18T02:06:10.980Z,22.44
2018-05-18T02:08:39.262Z,22.46
2018-05-18T02:11:05.944Z,22.46
2018-05-18T02:13:35.780Z,22.44
2018-05-18T02:16:02.436Z,22.40
2018-05-18T02:18:29.115Z,22.36
2018-05-18T02:20:55.746Z,22.43
2018-05-18T02:23:22.432Z,22.40
2018-05-18T02:25:51.534Z,22.39
2018-05-18T02:28:18.217Z,22.37
2018-05-18T02:30:44.857Z,22.36
2018-05-18T02:33:13.537Z,22.40
2018-05-18T02:35:41.533Z,22.34
2018-05-18T02:38:09.042Z,22.31
2018-05-18T02:40:38.766Z,22.32
2018-05-18T02:43:08.834Z,22.33
2018-05-18T02:45:38.222Z,22.31
2018-05-18T02:48:04.930Z,22.28
2018-05-18T02:50:32.935Z,22.28
2018-05-18T02:52:58.228Z,22.29
2018-05-18T02:55:26.692Z,22.27
2018-05-18T02:57:51.539Z,22.27
2018-05-18T03:00:18.257Z,22.26
2018-05-18T03:02:48.524Z,22.25
2018-05-18T03:05:19.411Z,22.29
2018-05-18T03:07:53.099Z,22.23
2018-05-18T03:10:22.671Z,22.23
2018-05-18T03:12:50.664Z,22.21
2018-05-18T03:15:15.992Z,22.31
2018-05-18T03:17:42.616Z,22.10
2018-05-18T03:20:09.263Z,22.03
2018-05-18T03:22:37.750Z,21.97
2018-05-18T03:25:05.772Z,21.91
2018-05-18T03:27:33.189Z,21.87
2018-05-18T03:29:57.713Z,21.97
2018-05-18T03:32:24.358Z,21.97
2018-05-18T03:34:51.057Z,22.06
2018-05-18T03:37:21.909Z,21.97
2018-05-18T03:39:48.753Z,21.85
2018-05-18T03:42:16.239Z,21.99
2018-05-18T03:44:42.872Z,21.99
2018-05-18T03:47:14.851Z,22.00
2018-05-18T03:49:41.163Z,22.01
2018-05-18T03:52:07.839Z,21.95
2018-05-18T03:54:34.474Z,22.09
2018-05-18T03:57:03.486Z,22.22
2018-05-18T03:59:32.229Z,22.28
2018-05-18T04:01:58.914Z,22.36
2018-05-18T04:04:25.591Z,22.48
2018-05-18T04:06:55.433Z,22.60
2018-05-18T04:09:22.071Z,22.70
2018-05-18T04:11:48.770Z,22.74
2018-05-18T04:14:15.406Z,22.79
2018-05-18T04:16:43.405Z,22.80
2018-05-18T04:19:10.095Z,22.93
2018-05-18T04:21:37.705Z,23.09
2018-05-18T04:24:04.353Z,23.05
2018-05-18T04:26:31.051Z,23.10
2018-05-18T04:28:59.087Z,23.09
2018-05-18T04:31:28.459Z,23.19
2018-05-18T04:33:53.650Z,23.26
2018-05-18T04:36:20.352Z,23.27
2018-05-18T04:38:48.031Z,23.29
2018-05-18T04:41:13.621Z,23.26
2018-05-18T04:43:43.087Z,23.27
2018-05-18T04:46:11.034Z,23.28
2018-05-18T04:48:39.120Z,23.30
2018-05-18T04:51:05.822Z,23.31
2018-05-18T04:53:32.446Z,23.31
2018-05-18T04:56:02.367Z,23.41
2018-05-18T04:58:29.043Z,23.37
2018-05-18T05:01:06.965Z,23.40
2018-05-18T05:03:34.551Z,23.41
2018-05-18T05:06:07.514Z,23.52
2018-05-18T05:08:36.461Z,23.53
2018-05-18T05:11:05.975Z,23.60
2018-05-18T05:13:36.797Z,23.67
2018-05-18T05:16:02.368Z,23.72
2018-05-18T05:18:29.096Z,23.71
2018-05-18T05:20:55.736Z,23.75
2018-05-18T05:23:22.376Z,23.62
2018-05-18T05:25:49.024Z,23.61
2018-05-18T05:28:15.712Z,23.51
2018-05-18T05:30:42.313Z,23.52
2018-05-18T05:33:08.949Z,23.48
2018-05-18T05:35:35.598Z,23.40
2018-05-18T05:38:04.959Z,23.53
2018-05-18T05:40:35.382Z,23.43
2018-05-18T05:43:02.351Z,23.42
2018-05-18T05:45:27.198Z,23.54
2018-05-18T05:47:53.826Z,23.37
2018-05-18T05:50:20.499Z,23.00
2018-05-18T05:52:47.127Z,22.94
2018-05-18T05:55:20.172Z,23.08
2018-05-18T05:57:46.811Z,23.26
2018-05-18T06:00:13.476Z,23.32
2018-05-18T06:02:40.134Z,23.40
2018-05-18T06:05:11.447Z,23.45
2018-05-18T06:07:33.414Z,23.49
2018-05-18T06:10:00.052Z,23.52
2018-05-18T06:12:26.707Z,23.60
2018-05-18T06:14:53.362Z,23.57
2018-05-18T06:17:20.021Z,23.58
2018-05-18T06:19:48.675Z,23.70
2018-05-18T06:22:15.335Z,23.62
2018-05-18T06:24:41.978Z,23.60
2018-05-18T06:27:08.619Z,23.63
2018-05-18T06:29:38.165Z,23.85
2018-05-18T06:32:04.810Z,23.81
2018-05-18T06:34:34.167Z,23.82
2018-05-18T06:37:03.906Z,23.83
2018-05-18T06:39:32.508Z,23.77
2018-05-18T06:41:59.169Z,23.93
2018-05-18T06:44:25.916Z,23.88
2018-05-18T06:46:54.713Z,23.99
2018-05-18T06:49:22.732Z,24.05
2018-05-18T06:51:50.047Z,24.04
2018-05-18T06:54:18.040Z,24.01
2018-05-18T06:56:44.455Z,24.03
2018-05-18T06:59:11.063Z,24.10
2018-05-18T07:01:37.765Z,24.19
2018-05-18T07:04:04.638Z,24.23
2018-05-18T07:06:31.207Z,24.11
2018-05-18T07:08:57.901Z,24.23
2018-05-18T07:11:24.579Z,24.18
2018-05-18T07:13:51.210Z,24.20
2018-05-18T07:16:17.858Z,24.23
2018-05-18T07:18:44.497Z,24.24
2018-05-18T07:21:11.145Z,24.31
2018-05-18T07:23:37.794Z,24.26
2018-05-18T07:26:04.471Z,24.14
2018-05-18T07:28:31.167Z,24.13
2018-05-18T07:30:57.775Z,24.13
2018-05-18T07:33:24.421Z,24.09
2018-05-18T07:35:51.078Z,24.28
2018-05-18T07:38:17.741Z,24.34
2018-05-18T07:40:44.345Z,24.27
2018-05-18T07:43:10.996Z,24.15
2018-05-18T07:45:37.650Z,24.10
2018-05-18T07:48:04.288Z,24.04
2018-05-18T07:50:30.941Z,24.07
2018-05-18T07:52:57.582Z,24.10
2018-05-18T07:55:24.340Z,24.20
2018-05-18T07:57:56.538Z,24.13
2018-05-18T08:00:23.220Z,24.23
2018-05-18T08:02:49.912Z,24.05
2018-05-18T08:05:16.546Z,24.05
2018-05-18T08:07:43.274Z,24.02
2018-05-18T08:10:09.884Z,24.09
2018-05-18T08:12:36.539Z,24.01
2018-05-18T08:15:03.253Z,24.03
2018-05-18T08:17:29.998Z,24.15
2018-05-18T08:19:56.686Z,24.22
2018-05-18T08:22:23.326Z,24.33
2018-05-18T08:24:49.977Z,24.56
2018-05-18T08:27:16.639Z,24.64
2018-05-18T08:29:43.283Z,24.31
2018-05-18T08:32:09.977Z,24.04
2018-05-18T08:34:36.624Z,24.01
2018-05-18T08:37:09.730Z,24.04
2018-05-18T08:39:36.386Z,24.10
2018-05-18T08:42:03.124Z,24.18
2018-05-18T08:44:29.824Z,24.23
2018-05-18T08:46:56.384Z,24.09
2018-05-18T08:49:23.040Z,24.15
2018-05-18T08:51:49.707Z,24.08
2018-05-18T08:54:16.447Z,24.16
2018-05-18T08:56:43.146Z,24.19
2018-05-18T08:59:09.830Z,24.19
2018-05-18T09:01:36.546Z,24.04
2018-05-18T09:04:03.179Z,24.12
2018-05-18T09:06:29.828Z,24.04
2018-05-18T09:08:56.559Z,24.06
2018-05-18T09:11:23.114Z,24.08
2018-05-18T09:13:49.757Z,24.13
2018-05-18T09:16:16.407Z,24.07
2018-05-18T09:18:43.174Z,24.07
2018-05-18T09:21:09.981Z,24.11
2018-05-18T09:23:36.630Z,24.19
2018-05-18T09:26:03.261Z,24.32
2018-05-18T09:28:29.995Z,24.23
2018-05-18T09:30:56.677Z,24.10
2018-05-18T09:33:23.373Z,23.97
2018-05-18T09:35:50.001Z,24.05
2018-05-18T09:38:16.635Z,23.96
2018-05-18T09:40:43.320Z,23.99
2018-05-18T09:43:09.953Z,24.02
2018-05-18T09:45:36.597Z,24.14
2018-05-18T09:48:03.282Z,24.09
2018-05-18T09:50:30.096Z,24.03
2018-05-18T09:52:56.701Z,24.03
2018-05-18T09:55:23.553Z,24.02
2018-05-18T09:57:50.046Z,24.02
2018-05-18T10:00:16.702Z,24.07
2018-05-18T10:02:43.400Z,24.09
2018-05-18T10:05:10.046Z,24.12
2018-05-18T10:07:36.745Z,24.13
2018-05-18T10:10:03.389Z,24.10
2018-05-18T10:12:30.175Z,24.16
2018-05-18T10:14:56.647Z,24.10
2018-05-18T10:17:23.320Z,24.36
2018-05-18T10:19:49.968Z,24.24
2018-05-18T10:22:16.655Z,24.24
2018-05-18T10:24:43.325Z,24.36
2018-05-18T10:27:09.984Z,24.49
2018-05-18T10:29:36.630Z,24.60
2018-05-18T10:32:04.380Z,24.36
2018-05-18T10:34:31.065Z,24.17
2018-05-18T10:36:57.705Z,24.21
2018-05-18T10:39:24.408Z,24.43
2018-05-18T10:41:51.099Z,24.33
2018-05-18T10:44:17.739Z,24.26
2018-05-18T10:46:44.380Z,24.01
2018-05-18T10:49:11.056Z,24.08
2018-05-18T10:51:37.700Z,24.25
2018-05-18T10:54:04.434Z,24.29
2018-05-18T10:56:31.137Z,24.31
2018-05-18T10:58:57.794Z,24.15
2018-05-18T11:01:24.447Z,24.34
2018-05-18T11:03:51.175Z,24.49
2018-05-18T11:06:17.871Z,24.55
2018-05-18T11:08:44.514Z,24.33
2018-05-18T11:11:11.210Z,24.16
2018-05-18T11:13:37.850Z,24.18
2018-05-18T11:16:04.538Z,24.22
2018-05-18T11:18:31.192Z,24.36
2018-05-18T11:20:57.827Z,24.34
2018-05-18T11:23:24.537Z,24.19
2018-05-18T11:25:51.377Z,24.23
2018-05-18T11:28:17.996Z,24.30
2018-05-18T11:30:44.682Z,24.48
2018-05-18T11:33:11.552Z,24.37
2018-05-18T11:35:38.287Z,24.19
2018-05-18T11:38:04.962Z,24.18
2018-05-18T11:40:32.887Z,24.06
2018-05-18T11:42:58.226Z,24.13
2018-05-18T11:45:24.861Z,24.52
2018-05-18T11:47:51.499Z,24.40
2018-05-18T11:50:18.210Z,24.40
2018-05-18T11:52:44.851Z,24.40
2018-05-18T11:55:11.551Z,24.17
2018-05-18T11:57:38.198Z,24.04
2018-05-18T12:00:04.836Z,24.07
2018-05-18T12:02:31.521Z,24.35
2018-05-18T12:05:01.123Z,24.36
2018-05-18T12:07:27.814Z,24.64
2018-05-18T12:09:54.423Z,24.44
2018-05-18T12:12:21.073Z,24.41
2018-05-18T12:14:47.899Z,24.14
2018-05-18T12:17:17.868Z,23.95
2018-05-18T12:19:44.619Z,24.18
2018-05-18T12:22:11.266Z,24.26
2018-05-18T12:24:37.909Z,24.25
2018-05-18T12:27:04.553Z,24.33
2018-05-18T12:29:31.235Z,24.32
2018-05-18T12:31:57.871Z,24.29
2018-05-18T12:34:24.518Z,24.23
2018-05-18T12:36:51.190Z,24.12
2018-05-18T12:39:17.823Z,24.03
2018-05-18T12:41:44.579Z,24.15
2018-05-18T12:44:11.250Z,24.19
2018-05-18T12:46:37.934Z,24.35
2018-05-18T12:49:04.546Z,24.37
2018-05-18T12:51:31.357Z,24.43
2018-05-18T12:53:57.972Z,24.30
2018-05-18T12:56:24.698Z,24.17
2018-05-18T12:58:51.297Z,24.13
2018-05-18T13:01:17.940Z,24.28
2018-05-18T13:03:44.581Z,24.33
2018-05-18T13:06:11.262Z,24.32
2018-05-18T13:08:37.953Z,24.25
2018-05-18T13:11:04.589Z,24.11
2018-05-18T13:13:31.226Z,24.09
2018-05-18T13:15:57.902Z,24.00
2018-05-18T13:18:24.520Z,23.98
2018-05-18T13:20:51.308Z,24.14
2018-05-18T13:23:17.909Z,24.17
2018-05-18T13:25:44.644Z,24.22
2018-05-18T13:28:11.293Z,24.22
2018-05-18T13:30:38.052Z,24.34
2018-05-18T13:33:04.674Z,24.58
2018-05-18T13:35:31.310Z,24.57
2018-05-18T13:37:58.015Z,24.61
2018-05-18T13:40:24.646Z,24.57
2018-05-18T13:42:51.353Z,24.51
2018-05-18T13:45:18.052Z,24.56
2018-05-18T13:47:44.691Z,24.38
2018-05-18T13:50:11.346Z,24.47
2018-05-18T13:52:38.067Z,24.41
2018-05-18T13:55:04.736Z,24.53
2018-05-18T13:57:31.383Z,24.43
2018-05-18T13:59:58.049Z,24.43
2018-05-18T14:02:24.719Z,24.55
2018-05-18T14:04:51.362Z,23.98
2018-05-18T14:07:17.995Z,23.89
2018-05-18T14:09:44.676Z,24.02
2018-05-18T14:12:11.326Z,24.12
2018-05-18T14:14:38.011Z,24.15
2018-05-18T14:17:04.668Z,24.26
2018-05-18T14:19:31.311Z,24.36
2018-05-18T14:21:57.956Z,24.26
2018-05-18T14:24:24.642Z,24.32
2018-05-18T14:26:51.330Z,24.46
2018-05-18T14:29:20.881Z,24.66
2018-05-18T14:31:47.540Z,24.80
2018-05-18T14:34:14.150Z,24.90
2018-05-18T14:36:40.822Z,24.52
2018-05-18T14:39:07.504Z,24.29
2018-05-18T14:41:34.154Z,24.19
2018-05-18T14:44:00.891Z,24.32
2018-05-18T14:46:27.490Z,24.50
2018-05-18T14:48:54.168Z,24.70
2018-05-18T14:51:20.773Z,24.85
2018-05-18T14:53:47.471Z,24.93
2018-05-18T14:56:14.119Z,24.59
2018-05-18T14:58:40.790Z,24.25
2018-05-18T15:01:07.508Z,24.31
2018-05-18T15:03:34.235Z,24.20
2018-05-18T15:06:00.848Z,24.24
2018-05-18T15:08:27.483Z,24.38
2018-05-18T15:10:54.174Z,24.59
2018-05-18T15:13:20.796Z,24.76
2018-05-18T15:15:47.480Z,24.81
2018-05-18T15:18:14.121Z,24.89
2018-05-18T15:20:40.805Z,24.97
2018-05-18T15:23:07.469Z,24.93
2018-05-18T15:25:34.137Z,24.96
2018-05-18T15:28:00.771Z,24.50
2018-05-18T15:30:27.427Z,24.48
2018-05-18T15:32:54.078Z,24.33
2018-05-18T15:35:20.751Z,24.37
2018-05-18T15:37:47.448Z,24.59
2018-05-18T15:40:14.092Z,24.68
2018-05-18T15:42:40.799Z,24.80
2018-05-18T15:45:07.412Z,24.89
2018-05-18T15:47:34.101Z,24.99
2018-05-18T15:50:00.777Z,25.08
2018-05-18T15:52:27.463Z,24.76
2018-05-18T15:54:54.159Z,24.40
2018-05-18T15:57:20.780Z,24.31
2018-05-18T15:59:47.405Z,24.09
2018-05-18T16:02:14.089Z,24.08
2018-05-18T16:04:40.818Z,24.15
2018-05-18T16:07:07.457Z,24.27
2018-05-18T16:09:34.152Z,24.47
2018-05-18T16:12:00.831Z,24.50
2018-05-18T16:14:27.467Z,24.53
2018-05-18T16:16:54.100Z,24.68
2018-05-18T16:19:20.851Z,24.74
2018-05-18T16:21:47.589Z,24.82
2018-05-18T16:24:14.193Z,24.86
2018-05-18T16:26:40.905Z,24.92
2018-05-18T16:29:07.501Z,25.01
2018-05-18T16:31:34.137Z,24.98
2018-05-18T16:34:00.827Z,25.01
2018-05-18T16:36:27.463Z,25.06
2018-05-18T16:38:54.107Z,25.02
2018-05-18T16:41:20.746Z,25.09
2018-05-18T16:43:47.379Z,25.06
2018-05-18T16:46:14.062Z,25.09
2018-05-18T16:48:40.697Z,25.11
2018-05-18T16:51:07.393Z,25.04
2018-05-18T16:53:34.027Z,24.50
2018-05-18T16:56:00.661Z,24.49
2018-05-18T16:58:27.381Z,24.41
2018-05-18T17:00:53.978Z,24.50
2018-05-18T17:03:20.625Z,24.70
2018-05-18T17:05:47.317Z,24.76
2018-05-18T17:08:14.075Z,24.86
2018-05-18T17:10:40.710Z,24.87
2018-05-18T17:13:07.350Z,25.03
2018-05-18T17:15:33.995Z,25.05
2018-05-18T17:18:00.671Z,24.96
2018-05-18T17:20:27.351Z,25.01
2018-05-18T17:22:53.983Z,25.05
2018-05-18T17:25:20.662Z,25.03
2018-05-18T17:27:47.338Z,25.07
2018-05-18T17:30:14.160Z,25.04
2018-05-18T17:32:40.789Z,25.05
2018-05-18T17:35:07.428Z,25.02
2018-05-18T17:37:34.122Z,25.04
2018-05-18T17:40:00.762Z,25.00
2018-05-18T17:42:27.426Z,25.03
2018-05-18T17:44:54.039Z,25.02
2018-05-18T17:47:20.675Z,25.03
2018-05-18T17:49:47.322Z,25.08
2018-05-18T17:52:13.959Z,25.11
2018-05-18T17:54:40.604Z,25.03
2018-05-18T17:57:07.250Z,25.05
2018-05-18T17:59:33.889Z,25.01
2018-05-18T18:02:00.533Z,24.94
2018-05-18T18:04:27.166Z,24.88
2018-05-18T18:06:53.810Z,24.87
2018-05-18T18:09:20.527Z,24.86
2018-05-18T18:11:47.163Z,24.82
2018-05-18T18:14:13.806Z,24.79
2018-05-18T18:16:40.448Z,24.81
2018-05-18T18:19:07.125Z,24.82
2018-05-18T18:21:33.720Z,24.78
2018-05-18T18:24:00.361Z,24.85
2018-05-18T18:26:27.008Z,24.82
2018-05-18T18:28:53.645Z,24.74
2018-05-18T18:31:20.286Z,24.72
2018-05-18T18:33:46.920Z,24.71
2018-05-18T18:36:13.568Z,24.71
2018-05-18T18:38:40.195Z,24.68
2018-05-18T18:41:06.843Z,24.64
2018-05-18T18:43:33.481Z,24.67
2018-05-18T18:46:00.134Z,24.63
2018-05-18T18:48:26.804Z,24.61
2018-05-18T18:50:53.416Z,24.60
2018-05-18T18:53:20.057Z,24.56
2018-05-18T18:55:46.720Z,24.58
2018-05-18T18:58:13.324Z,24.54
2018-05-18T19:00:39.963Z,24.51
2018-05-18T19:03:06.632Z,24.51
2018-05-18T19:05:33.265Z,24.53
2018-05-18T19:07:59.927Z,24.52
2018-05-18T19:10:26.531Z,24.49
2018-05-18T19:12:53.177Z,24.46
2018-05-18T19:15:19.824Z,24.46
2018-05-18T19:17:46.452Z,24.45
2018-05-18T19:20:13.158Z,24.45
2018-05-18T19:22:39.726Z,24.43
2018-05-18T19:25:06.375Z,24.47
2018-05-18T19:27:33.008Z,24.42
2018-05-18T19:29:59.642Z,24.42
2018-05-18T19:32:26.294Z,24.39
2018-05-18T19:34:53.027Z,24.38
2018-05-18T19:37:19.677Z,24.38
2018-05-18T19:39:46.315Z,24.39
2018-05-18T19:42:12.957Z,24.38
2018-05-18T19:44:39.638Z,24.36
2018-05-18T19:47:06.272Z,24.35
2018-05-18T19:49:32.901Z,24.35
2018-05-18T19:51:59.549Z,24.32
2018-05-18T19:54:26.184Z,24.33
2018-05-18T19:56:52.821Z,24.33
2018-05-18T19:59:19.461Z,24.31
2018-05-18T20:01:46.150Z,24.31
2018-05-18T20:04:12.782Z,24.29
2018-05-18T20:06:39.428Z,24.31
2018-05-18T20:09:06.091Z,24.30
2018-05-18T20:11:32.733Z,24.29
2018-05-18T20:13:59.369Z,24.31
2018-05-18T20:16:26.013Z,24.27
2018-05-18T20:18:52.680Z,24.27
2018-05-18T20:21:19.293Z,24.27
2018-05-18T20:23:45.926Z,24.26
2018-05-18T20:26:12.622Z,24.26
2018-05-18T20:28:39.267Z,24.22
2018-05-18T20:31:05.904Z,24.23
2018-05-18T20:33:32.550Z,24.25
2018-05-18T20:35:59.185Z,24.22
2018-05-18T20:38:25.865Z,24.22
2018-05-18T20:40:52.536Z,24.19
2018-05-18T20:43:19.183Z,24.20
2018-05-18T20:45:45.798Z,24.15
2018-05-18T20:48:12.436Z,24.15
2018-05-18T20:50:39.079Z,24.17
2018-05-18T20:53:05.731Z,24.18
2018-05-18T20:55:32.372Z,24.14
2018-05-18T20:57:59.018Z,24.11
2018-05-18T21:00:25.702Z,24.11
2018-05-18T21:02:52.341Z,24.14
2018-05-18T21:05:18.981Z,24.11
2018-05-18T21:07:45.631Z,24.09
2018-05-18T21:10:12.268Z,24.09
2018-05-18T21:12:38.903Z,24.09
2018-05-18T21:15:05.551Z,24.08
2018-05-18T21:17:32.186Z,24.08
2018-05-18T21:19:58.831Z,24.09
2018-05-18T21:22:25.464Z,24.07
2018-05-18T21:24:52.111Z,24.06
2018-05-18T21:27:18.756Z,24.07
2018-05-18T21:29:45.394Z,24.04
2018-05-18T21:32:12.048Z,24.02
2018-05-18T21:34:38.683Z,24.00
2018-05-18T21:37:05.323Z,24.03
2018-05-18T21:39:31.959Z,24.00
2018-05-18T21:41:58.599Z,23.98
2018-05-18T21:44:25.242Z,23.98
2018-05-18T21:46:51.879Z,23.98
2018-05-18T21:49:18.524Z,23.96
2018-05-18T21:51:45.162Z,23.96
2018-05-18T21:54:11.806Z,23.94
2018-05-18T21:56:38.496Z,23.95
2018-05-18T21:59:05.127Z,23.94
2018-05-18T22:01:31.799Z,23.93
2018-05-18T22:03:58.428Z,23.93
2018-05-18T22:06:25.070Z,23.93
2018-05-18T22:08:51.706Z,23.93
2018-05-18T22:11:18.428Z,23.92
2018-05-18T22:13:45.057Z,23.91
2018-05-18T22:16:11.699Z,23.89
2018-05-18T22:18:38.341Z,23.88
2018-05-18T22:21:04.977Z,23.90
2018-05-18T22:23:31.700Z,23.87
2018-05-18T22:25:58.303Z,23.87
2018-05-18T22:28:24.933Z,23.88
2018-05-18T22:30:51.656Z,23.86
2018-05-18T22:33:18.245Z,23.86
2018-05-18T22:35:44.903Z,23.85
2018-05-18T22:38:11.590Z,23.77
2018-05-18T22:40:38.233Z,23.85
2018-05-18T22:43:04.870Z,23.84
2018-05-18T22:45:31.502Z,23.83
2018-05-18T22:47:58.142Z,23.85
2018-05-18T22:50:24.776Z,23.83
2018-05-18T22:52:51.421Z,23.82
2018-05-18T22:55:18.059Z,23.79
2018-05-18T22:57:44.694Z,23.79
2018-05-18T23:00:11.326Z,23.79
2018-05-18T23:02:37.969Z,23.78
2018-05-18T23:05:04.602Z,23.79
2018-05-18T23:07:31.244Z,23.78
2018-05-18T23:09:57.875Z,23.77
2018-05-18T23:12:24.556Z,23.77
2018-05-18T23:14:51.198Z,23.75
2018-05-18T23:17:17.873Z,23.74
2018-05-18T23:19:44.523Z,23.72
2018-05-18T23:22:11.207Z,23.71
2018-05-18T23:24:37.840Z,23.71
2018-05-18T23:27:04.522Z,23.70
2018-05-18T23:29:31.158Z,23.70
2018-05-18T23:31:57.831Z,23.69
2018-05-18T23:34:24.434Z,23.70
2018-05-18T23:36:51.067Z,23.66
2018-05-18T23:39:17.761Z,23.65
2018-05-18T23:41:44.396Z,23.64
2018-05-18T23:44:11.080Z,23.63
2018-05-18T23:46:37.723Z,23.63
2018-05-18T23:49:04.362Z,23.59
2018-05-18T23:51:30.998Z,23.61
2018-05-18T23:53:57.674Z,23.58
2018-05-18T23:56:24.311Z,23.55
2018-05-18T23:58:51.001Z,23.54
